Time;durP1;ratioP1;P1;durP2;ratioP2;P2;SDS_P1;SDS_P2;PMS_P1;PMS_P2;Temp;Humidity;BMP_temperature;BMP_pressure;BME280_temperature;BME280_humidity;BME280_pressure;Samples;Min_cycle;Max_cycle;Signal;HPM_P1;HPM_P2
2022/11/08 00:01:33;;;;;;;7.45;2.22;;;14.30;81.30;;;;;;5034764;28;20064;-71
2022/11/08 00:04:00;;;;;;;9.18;3.00;;;14.30;81.40;;;;;;5036143;28;20028;-71
2022/11/08 00:14:40;;;;;;;7.28;2.05;;;14.10;81.50;;;;;;5037328;28;20463;-71
2022/11/08 00:17:06;;;;;;;7.13;2.33;;;14.10;81.60;;;;;;5043678;28;20400;-71
2022/11/08 00:19:31;;;;;;;5.07;2.08;;;14.10;81.60;;;;;;5041142;28;20036;-71
2022/11/08 00:21:57;;;;;;;6.70;2.10;;;14.10;81.60;;;;;;5029173;28;20018;-71
2022/11/08 00:24:22;;;;;;;5.45;2.25;;;14.10;81.70;;;;;;5043010;28;20029;-71
2022/11/08 00:26:48;;;;;;;7.45;2.70;;;14.10;81.80;;;;;;5029023;28;20034;-72
2022/11/08 00:29:14;;;;;;;5.20;2.30;;;14.00;81.80;;;;;;5035635;28;20099;-71
2022/11/08 00:31:39;;;;;;;5.40;2.00;;;14.00;81.90;;;;;;5032938;28;20025;-71
2022/11/08 00:34:05;;;;;;;9.27;2.55;;;14.00;82.10;;;;;;5033428;28;20472;-71
2022/11/08 00:36:31;;;;;;;7.32;2.28;;;14.00;82.10;;;;;;5047042;28;20021;-72
2022/11/08 00:38:56;;;;;;;7.25;2.45;;;14.00;82.10;;;;;;5047764;28;20025;-70
2022/11/08 00:41:22;;;;;;;8.77;2.58;;;13.90;82.10;;;;;;5041468;28;20048;-70
2022/11/08 00:43:48;;;;;;;6.35;2.33;;;13.90;82.20;;;;;;5039009;28;20028;-71
2022/11/08 00:46:13;;;;;;;8.00;2.90;;;13.90;82.30;;;;;;5041636;28;20029;-70
2022/11/08 00:48:39;;;;;;;10.15;3.08;;;13.90;82.40;;;;;;5048898;28;20132;-71
2022/11/08 00:51:07;;;;;;;5.18;2.00;;;13.80;82.50;;;;;;5039613;28;20221;-69
2022/11/08 00:53:32;;;;;;;4.60;2.05;;;13.80;82.50;;;;;;5033828;28;20029;-70
2022/11/08 00:56:03;;;;;;;6.97;2.50;;;13.80;82.50;;;;;;5038487;28;20028;-71
2022/11/08 00:58:29;;;;;;;7.40;2.42;;;13.70;82.50;;;;;;5032395;28;20489;-70
2022/11/08 01:00:55;;;;;;;7.40;2.30;;;13.80;82.60;;;;;;5034196;28;20025;-71
2022/11/08 01:03:22;;;;;;;6.10;2.30;;;13.70;82.60;;;;;;5038756;28;20024;-70
2022/11/08 01:05:50;;;;;;;5.45;1.98;;;13.70;82.70;;;;;;5040545;28;20415;-70
2022/11/08 01:08:18;;;;;;;6.70;2.60;;;13.60;82.70;;;;;;5029998;28;20098;-70
2022/11/08 01:10:46;;;;;;;5.88;2.20;;;13.60;83.00;;;;;;5031414;28;20029;-70
2022/11/08 01:13:12;;;;;;;7.97;2.53;;;13.60;83.10;;;;;;5039331;28;20026;-69
2022/11/08 01:15:40;;;;;;;10.20;3.08;;;13.50;83.10;;;;;;5028540;28;20037;-70
2022/11/08 01:18:07;;;;;;;7.97;2.33;;;13.50;83.30;;;;;;5047725;28;20028;-70
2022/11/08 01:20:38;;;;;;;4.93;2.00;;;13.50;83.40;;;;;;5047836;28;20053;-71
2022/11/08 01:23:03;;;;;;;5.78;2.15;;;13.50;83.40;;;;;;5036080;28;20045;-70
2022/11/08 01:25:29;;;;;;;7.68;2.42;;;13.50;83.40;;;;;;5051240;28;20147;-71
2022/11/08 01:27:54;;;;;;;5.25;2.05;;;13.50;83.50;;;;;;5050783;28;20021;-71
2022/11/08 01:30:20;;;;;;;5.82;2.08;;;13.50;83.50;;;;;;5048496;28;20160;-70
2022/11/08 01:32:46;;;;;;;7.97;2.40;;;13.50;83.50;;;;;;5041365;28;20029;-70
2022/11/08 01:35:11;;;;;;;7.00;2.63;;;13.40;83.50;;;;;;5043734;28;20036;-71
2022/11/08 01:37:37;;;;;;;8.02;2.50;;;13.40;83.70;;;;;;5041364;28;20060;-70
2022/11/08 01:40:03;;;;;;;8.10;2.78;;;13.40;83.70;;;;;;5049193;28;20032;-70
2022/11/08 01:42:31;;;;;;;6.88;2.45;;;13.40;84.00;;;;;;5050052;28;20691;-70
2022/11/08 01:45:01;;;;;;;6.72;2.60;;;13.40;84.10;;;;;;5047960;28;20048;-71
2022/11/08 01:47:27;;;;;;;7.55;2.30;;;13.40;84.10;;;;;;5043497;28;20017;-72
2022/11/08 01:50:06;;;;;;;6.75;2.10;;;13.40;84.10;;;;;;5034000;28;20072;-71
2022/11/08 01:52:41;;;;;;;6.00;2.00;;;13.30;84.00;;;;;;5038969;28;20035;-71
2022/11/08 01:55:16;;;;;;;6.07;2.00;;;13.30;84.00;;;;;;5041674;28;20115;-71
2022/11/08 01:57:54;;;;;;;5.35;2.10;;;13.30;84.00;;;;;;5041912;28;20104;-71
2022/11/08 02:00:19;;;;;;;8.13;2.65;;;13.30;84.10;;;;;;5032175;28;20025;-71
2022/11/08 02:02:53;;;;;;;8.18;2.60;;;13.30;84.30;;;;;;5037205;28;20031;-70
2022/11/08 02:05:25;;;;;;;8.25;2.25;;;13.30;84.30;;;;;;5047104;28;20047;-72
2022/11/08 02:08:04;;;;;;;4.78;2.00;;;13.20;84.40;;;;;;5041361;28;20044;-71
2022/11/08 02:10:35;;;;;;;6.00;2.33;;;13.20;84.40;;;;;;5045415;28;20555;-71
2022/11/08 02:13:01;;;;;;;;;;;13.30;84.40;;;;;;5045037;28;20231;-71
2022/11/08 02:15:27;;;;;;;6.43;2.10;;;13.20;84.20;;;;;;5037045;28;19976;-72
2022/11/08 02:17:53;;;;;;;8.98;2.67;;;13.20;84.30;;;;;;5046883;28;20462;-71
2022/11/08 02:20:19;;;;;;;5.28;1.98;;;13.20;84.40;;;;;;5043817;28;20176;-71
2022/11/08 02:22:54;;;;;;;4.60;2.10;;;13.20;84.40;;;;;;5042780;28;20676;-71
2022/11/08 02:25:20;;;;;;;4.70;1.77;;;13.20;84.40;;;;;;5036407;28;20407;-72
2022/11/08 02:27:45;;;;;;;7.85;2.65;;;13.20;84.40;;;;;;5045301;28;20018;-71
2022/11/08 02:30:11;;;;;;;6.32;2.22;;;13.20;84.50;;;;;;5031314;28;20029;-71
2022/11/08 02:32:38;;;;;;;4.53;2.00;;;13.20;84.40;;;;;;5046001;28;20086;-71
2022/11/08 02:35:09;;;;;;;5.05;2.25;;;13.20;84.30;;;;;;5031180;28;20030;-73
2022/11/08 02:37:35;;;;;;;6.07;2.28;;;13.20;84.30;;;;;;5044373;28;20029;-72
2022/11/08 02:40:00;;;;;;;3.15;1.70;;;13.20;84.20;;;;;;5046740;28;20041;-71
2022/11/08 02:42:26;;;;;;;7.20;2.40;;;13.20;84.10;;;;;;5032069;28;20033;-72
2022/11/08 02:44:51;;;;;;;5.45;2.15;;;13.10;84.10;;;;;;5037335;28;20494;-72
2022/11/08 02:47:17;;;;;;;4.00;2.05;;;13.10;84.40;;;;;;5040003;28;20502;-72
2022/11/08 02:49:43;;;;;;;4.88;2.03;;;13.10;84.40;;;;;;5042499;28;20035;-72
2022/11/08 02:52:08;;;;;;;5.82;2.30;;;13.00;84.50;;;;;;5044266;28;20037;-71
2022/11/08 02:54:34;;;;;;;4.88;2.20;;;13.00;84.50;;;;;;5036355;28;20025;-71
2022/11/08 02:56:59;;;;;;;5.88;2.60;;;13.00;84.50;;;;;;5038473;28;20064;-72
2022/11/08 02:59:25;;;;;;;5.82;2.25;;;13.00;84.40;;;;;;5037553;28;20032;-71
2022/11/08 03:01:52;;;;;;;5.65;2.30;;;13.00;84.50;;;;;;5048265;28;20033;-71
2022/11/08 03:04:17;;;;;;;7.00;2.40;;;13.00;84.50;;;;;;5041872;28;20070;-71
2022/11/08 03:06:43;;;;;;;5.60;2.40;;;12.90;84.50;;;;;;5032587;28;20495;-70
2022/11/08 03:09:09;;;;;;;4.90;2.42;;;12.90;84.70;;;;;;5032741;28;20021;-71
2022/11/08 03:11:34;;;;;;;4.43;2.05;;;12.90;84.70;;;;;;5036610;28;20061;-71
2022/11/08 03:14:00;;;;;;;4.25;2.38;;;12.90;84.60;;;;;;5035597;28;20079;-72
2022/11/08 03:16:25;;;;;;;6.75;2.42;;;13.00;84.60;;;;;;5038143;28;20028;-71
2022/11/08 03:18:51;;;;;;;5.40;2.25;;;12.90;84.60;;;;;;5034829;28;20037;-71
2022/11/08 03:21:16;;;;;;;4.82;2.15;;;12.90;84.80;;;;;;5037157;28;20030;-71
2022/11/08 03:23:42;;;;;;;5.07;2.08;;;12.80;84.80;;;;;;5032484;28;20109;-70
2022/11/08 03:26:07;;;;;;;5.68;2.25;;;12.80;84.80;;;;;;5043356;28;20026;-71
2022/11/08 03:28:33;;;;;;;6.40;2.38;;;12.80;84.80;;;;;;5039564;28;20021;-70
2022/11/08 03:30:58;;;;;;;4.78;2.25;;;12.80;84.90;;;;;;5030084;28;20033;-71
2022/11/08 03:33:25;;;;;;;6.15;2.10;;;12.80;84.80;;;;;;5030428;28;20035;-73
2022/11/08 03:35:51;;;;;;;6.88;2.50;;;12.80;84.80;;;;;;5041107;28;20026;-70
2022/11/08 03:38:17;;;;;;;4.63;2.33;;;12.80;84.80;;;;;;5028622;28;20025;-71
2022/11/08 03:40:44;;;;;;;4.82;2.00;;;12.80;84.70;;;;;;5038169;28;20021;-70
2022/11/08 03:43:09;;;;;;;7.95;2.35;;;12.80;85.40;;;;;;5048577;28;20025;-71
2022/11/08 03:45:35;;;;;;;3.78;1.70;;;12.80;84.70;;;;;;5043005;28;20079;-69
2022/11/08 03:48:00;;;;;;;3.00;2.00;;;12.80;85.20;;;;;;5044774;28;20025;-70
2022/11/08 03:50:26;;;;;;;4.47;1.80;;;12.80;84.60;;;;;;5046141;28;20029;-70
2022/11/08 03:52:53;;;;;;;4.85;2.20;;;12.80;84.50;;;;;;5041608;28;20384;-71
2022/11/08 03:55:21;;;;;;;5.60;2.30;;;12.80;84.60;;;;;;5043976;28;20029;-70
2022/11/08 03:57:48;;;;;;;5.43;2.13;;;12.80;84.50;;;;;;5030522;28;20530;-70
2022/11/08 04:00:16;;;;;;;4.00;2.05;;;12.80;84.60;;;;;;5047609;28;20112;-72
2022/11/08 04:02:42;;;;;;;5.50;1.90;;;12.80;84.60;;;;;;5046029;28;20045;-72
2022/11/08 04:05:10;;;;;;;6.15;2.20;;;12.70;84.60;;;;;;5033702;28;20484;-72
2022/11/08 04:07:36;;;;;;;5.43;2.13;;;12.70;84.60;;;;;;5041161;28;20021;-70
2022/11/08 04:10:03;;;;;;;3.67;1.70;;;12.70;84.70;;;;;;5029327;28;20040;-71
2022/11/08 04:15:14;;;;;;;5.90;2.28;;;12.70;84.80;;;;;;5046466;28;20091;-72
2022/11/08 04:23:14;;;;;;;4.35;1.90;;;12.60;84.90;;;;;;5038623;28;20116;-73
2022/11/08 04:25:40;;;;;;;5.93;2.50;;;12.60;84.90;;;;;;5034858;28;20036;-72
2022/11/08 04:28:06;;;;;;;6.85;2.13;;;12.50;84.80;;;;;;5036808;28;20017;-72
2022/11/08 04:30:32;;;;;;;4.53;2.20;;;12.50;84.80;;;;;;5027614;28;20435;-72
2022/11/08 04:33:02;;;;;;;5.82;1.83;;;12.50;84.80;;;;;;5035274;28;20430;-71
2022/11/08 04:35:29;;;;;;;6.22;2.22;;;12.50;84.80;;;;;;5034331;28;20040;-71
2022/11/08 04:37:59;;;;;;;4.97;1.83;;;12.50;84.80;;;;;;5037628;28;20101;-71
2022/11/08 04:40:25;;;;;;;6.88;2.40;;;12.40;84.80;;;;;;5048853;28;20021;-71
2022/11/08 04:42:50;;;;;;;6.72;1.85;;;12.40;84.90;;;;;;5037452;28;20029;-72
2022/11/08 04:45:16;;;;;;;3.28;1.73;;;12.40;84.90;;;;;;5044087;28;20448;-73
2022/11/08 04:47:45;;;;;;;4.88;1.90;;;12.40;84.80;;;;;;5041877;28;20062;-72
2022/11/08 04:50:10;;;;;;;5.15;1.48;;;12.40;84.60;;;;;;5030618;28;20021;-71
2022/11/08 04:52:36;;;;;;;5.03;2.08;;;12.40;84.50;;;;;;5040572;28;20079;-71
2022/11/08 04:55:01;;;;;;;3.90;1.80;;;12.40;84.30;;;;;;5048099;28;20036;-72
2022/11/08 04:57:27;;;;;;;4.82;2.03;;;12.40;84.20;;;;;;5050379;28;20029;-71
2022/11/08 04:59:53;;;;;;;4.88;2.13;;;12.40;84.00;;;;;;5033884;28;20084;-71
2022/11/08 05:02:18;;;;;;;4.13;1.65;;;12.40;84.00;;;;;;5047413;28;20118;-71
2022/11/08 05:04:44;;;;;;;5.10;2.03;;;12.40;84.30;;;;;;5049325;28;20491;-71
2022/11/08 05:07:10;;;;;;;5.32;1.90;;;12.40;83.90;;;;;;5051205;28;20028;-71
2022/11/08 05:09:35;;;;;;;3.90;1.70;;;12.40;83.90;;;;;;5034637;28;20416;-71
2022/11/08 05:12:01;;;;;;;3.92;1.65;;;12.40;84.40;;;;;;5045324;28;20040;-71
2022/11/08 05:14:26;;;;;;;5.50;1.70;;;12.40;83.60;;;;;;5038779;28;20033;-70
2022/11/08 05:16:52;;;;;;;5.70;2.10;;;12.40;83.50;;;;;;5033316;28;20044;-71
2022/11/08 05:23:22;;;;;;;4.05;1.70;;;12.40;83.50;;;;;;5039952;28;20025;-70
2022/11/08 05:24:47;;;;;;;4.47;1.90;;;12.40;83.40;;;;;;5037967;28;20029;-72
2022/11/08 05:27:13;;;;;;;5.38;1.90;;;12.40;83.10;;;;;;5051753;28;20383;-72
2022/11/08 05:29:38;;;;;;;5.13;2.13;;;12.40;83.10;;;;;;5047347;28;20402;-72
2022/11/08 05:32:04;;;;;;;6.70;2.33;;;12.30;83.00;;;;;;5042499;28;20025;-72
2022/11/08 05:34:30;;;;;;;4.35;2.10;;;12.30;83.00;;;;;;5040986;28;20495;-73
2022/11/08 05:36:55;;;;;;;5.00;2.22;;;12.30;82.90;;;;;;5048559;28;20474;-71
2022/11/08 05:39:21;;;;;;;4.88;2.10;;;12.30;82.90;;;;;;5048411;28;20498;-72
2022/11/08 05:41:47;;;;;;;6.20;2.20;;;12.30;82.90;;;;;;5042956;28;20032;-73
2022/11/08 05:44:12;;;;;;;3.88;2.25;;;12.30;82.80;;;;;;5036294;28;20029;-73
2022/11/08 05:46:38;;;;;;;4.10;2.30;;;12.30;82.80;;;;;;5049580;28;20524;-71
2022/11/08 05:49:03;;;;;;;5.68;2.30;;;12.30;82.80;;;;;;5048232;28;20017;-71
2022/11/08 05:51:30;;;;;;;4.65;2.20;;;12.40;82.80;;;;;;5038470;28;20037;-71
2022/11/08 05:53:56;;;;;;;7.05;2.25;;;12.40;82.70;;;;;;5037151;28;20029;-71
2022/11/08 05:56:22;;;;;;;6.78;2.33;;;12.30;82.60;;;;;;5037954;28;20086;-70
2022/11/08 05:58:47;;;;;;;4.38;1.90;;;12.30;82.60;;;;;;5039969;28;20056;-70
2022/11/08 06:01:18;;;;;;;5.57;2.50;;;12.30;82.60;;;;;;5040387;28;20029;-70
2022/11/08 06:03:44;;;;;;;5.75;2.17;;;12.30;82.50;;;;;;5046774;28;20025;-71
2022/11/08 06:06:15;;;;;;;3.63;1.60;;;12.30;82.50;;;;;;5046034;28;20048;-71
2022/11/08 06:08:42;;;;;;;5.13;2.70;;;12.40;82.50;;;;;;5041107;28;20395;-71
2022/11/08 06:11:14;;;;;;;6.55;2.47;;;12.30;82.40;;;;;;5035506;28;20430;-72
2022/11/08 06:13:40;;;;;;;4.47;2.65;;;12.30;82.40;;;;;;5045022;28;20429;-72
2022/11/08 06:16:09;;;;;;;4.63;2.33;;;12.30;82.40;;;;;;5036807;28;20025;-69
2022/11/08 06:18:35;;;;;;;4.85;2.03;;;12.30;82.50;;;;;;5032237;28;20033;-69
2022/11/08 06:21:02;;;;;;;4.10;2.05;;;12.30;82.40;;;;;;5038217;28;20025;-71
2022/11/08 06:23:28;;;;;;;6.32;2.40;;;12.30;82.40;;;;;;5042437;28;20020;-71
2022/11/08 06:25:54;;;;;;;3.95;2.20;;;12.30;82.40;;;;;;5043328;28;20025;-70
2022/11/08 06:28:20;;;;;;;3.63;1.88;;;12.30;82.40;;;;;;5047873;28;20143;-70
2022/11/08 06:30:46;;;;;;;4.15;2.50;;;12.30;82.40;;;;;;5041848;28;20036;-71
2022/11/08 06:33:12;;;;;;;4.18;2.40;;;12.30;82.40;;;;;;5052661;28;20022;-71
2022/11/08 06:35:37;;;;;;;3.13;1.95;;;12.30;82.40;;;;;;5044729;28;20037;-70
2022/11/08 06:38:03;;;;;;;3.33;1.80;;;12.30;82.40;;;;;;5040921;28;20032;-70
2022/11/08 06:40:31;;;;;;;4.28;2.17;;;12.30;82.40;;;;;;5043071;28;20037;-70
2022/11/08 06:42:57;;;;;;;5.05;2.30;;;12.30;82.30;;;;;;5047714;28;20491;-71
2022/11/08 06:45:24;;;;;;;4.22;2.25;;;12.30;82.20;;;;;;5046272;28;20086;-70
2022/11/08 06:47:56;;;;;;;4.55;2.30;;;12.30;82.20;;;;;;5043828;28;20025;-70
2022/11/08 06:50:22;;;;;;;6.28;2.80;;;12.30;82.20;;;;;;5046000;28;20036;-71
2022/11/08 06:52:57;;;;;;;5.05;1.92;;;12.30;82.20;;;;;;5046414;28;20357;-71
2022/11/08 06:55:22;;;;;;;3.47;2.13;;;12.30;82.20;;;;;;5048592;28;20052;-71
2022/11/08 06:57:48;;;;;;;4.95;2.08;;;12.30;82.30;;;;;;5037488;28;20487;-71
2022/11/08 07:00:15;;;;;;;6.10;2.28;;;12.30;82.20;;;;;;5042216;28;20061;-72
2022/11/08 07:02:43;;;;;;;4.82;2.30;;;12.30;82.20;;;;;;5043967;28;20029;-71
2022/11/08 07:05:11;;;;;;;5.63;2.33;;;12.30;82.30;;;;;;5043286;28;20029;-72
2022/11/08 07:07:37;;;;;;;3.90;2.10;;;12.30;82.20;;;;;;5042559;28;20032;-70
2022/11/08 07:10:04;;;;;;;4.95;2.60;;;12.30;82.20;;;;;;5045028;28;20039;-72
2022/11/08 07:12:30;;;;;;;6.53;2.28;;;12.30;82.20;;;;;;5049043;28;20082;-71
2022/11/08 07:14:56;;;;;;;4.03;2.10;;;12.30;82.10;;;;;;5028732;28;20116;-71
2022/11/08 07:17:22;;;;;;;4.10;2.22;;;12.30;82.10;;;;;;5038601;28;20025;-71
2022/11/08 07:19:47;;;;;;;5.80;2.67;;;12.30;82.00;;;;;;5042162;28;20047;-71
2022/11/08 07:22:13;;;;;;;5.32;2.50;;;12.30;82.10;;;;;;5041371;28;20067;-71
2022/11/08 07:24:39;;;;;;;3.60;2.30;;;12.40;82.00;;;;;;5036026;28;20293;-71
2022/11/08 07:27:04;;;;;;;4.38;2.35;;;12.40;81.90;;;;;;5048603;28;20568;-71
2022/11/08 07:29:30;;;;;;;3.55;2.33;;;12.40;81.70;;;;;;5034242;28;20453;-71
2022/11/08 07:31:55;;;;;;;6.07;2.30;;;12.40;81.60;;;;;;5037350;28;20128;-71
2022/11/08 07:34:22;;;;;;;4.60;2.10;;;12.40;81.60;;;;;;5043407;28;20104;-71
2022/11/08 07:36:48;;;;;;;3.17;2.08;;;12.40;81.60;;;;;;5037124;28;20022;-71
2022/11/08 07:39:14;;;;;;;3.83;2.17;;;12.40;81.60;;;;;;5035714;28;20432;-70
2022/11/08 07:41:39;;;;;;;5.25;2.47;;;12.50;81.50;;;;;;5040704;28;20033;-71
2022/11/08 07:44:05;;;;;;;4.50;2.33;;;12.50;81.30;;;;;;5033823;28;20384;-71
2022/11/08 07:46:30;;;;;;;4.25;2.20;;;12.50;81.20;;;;;;5033118;28;20084;-71
2022/11/08 07:48:56;;;;;;;3.90;2.30;;;12.50;81.10;;;;;;5042087;28;20039;-70
2022/11/08 07:51:21;;;;;;;3.58;2.17;;;12.50;81.10;;;;;;5037033;28;20489;-70
2022/11/08 07:53:47;;;;;;;4.75;2.83;;;12.60;81.10;;;;;;5041460;28;20033;-70
2022/11/08 07:56:12;;;;;;;3.83;2.20;;;12.60;80.90;;;;;;5035464;28;20035;-70
2022/11/08 07:58:38;;;;;;;5.07;2.15;;;12.70;80.80;;;;;;5038495;28;20036;-71
2022/11/08 08:01:05;;;;;;;4.00;2.42;;;12.70;80.50;;;;;;5043743;28;20052;-71
2022/11/08 08:03:31;;;;;;;3.78;2.30;;;12.80;80.50;;;;;;5042521;28;20028;-71
2022/11/08 08:05:57;;;;;;;5.07;2.20;;;12.70;80.10;;;;;;5040696;28;20029;-70
2022/11/08 08:08:22;;;;;;;4.90;2.47;;;12.80;80.10;;;;;;5039544;28;20099;-71
2022/11/08 08:10:48;;;;;;;3.45;1.80;;;12.80;79.90;;;;;;5039755;28;20090;-70
2022/11/08 08:13:14;;;;;;;5.13;2.38;;;12.90;79.90;;;;;;5038231;28;20040;-70
2022/11/08 08:15:40;;;;;;;4.47;2.15;;;12.90;79.50;;;;;;5035052;28;20407;-71
2022/11/08 08:18:06;;;;;;;3.03;1.98;;;13.00;79.30;;;;;;5037937;28;20121;-70
2022/11/08 08:20:33;;;;;;;3.90;2.30;;;12.90;78.80;;;;;;5038085;28;20060;-71
2022/11/08 08:22:59;;;;;;;4.03;2.25;;;12.90;78.80;;;;;;5045089;28;20014;-70
2022/11/08 08:25:26;;;;;;;3.60;1.83;;;13.00;79.00;;;;;;5045007;28;20037;-70
2022/11/08 08:27:53;;;;;;;4.40;2.20;;;13.00;78.90;;;;;;5038293;28;20025;-71
2022/11/08 08:30:20;;;;;;;3.55;1.90;;;13.10;78.60;;;;;;5048039;28;20029;-71
2022/11/08 08:32:47;;;;;;;5.65;2.10;;;13.10;78.40;;;;;;5043516;28;20036;-71
2022/11/08 08:35:12;;;;;;;3.63;2.00;;;13.20;78.30;;;;;;5047038;28;20514;-71
2022/11/08 08:37:39;;;;;;;2.90;1.70;;;13.20;78.10;;;;;;5051134;28;20032;-71
2022/11/08 08:40:05;;;;;;;5.60;1.85;;;13.30;77.90;;;;;;5044218;28;20029;-71
2022/11/08 08:42:34;;;;;;;6.97;1.95;;;13.40;77.70;;;;;;5048504;28;20024;-70
2022/11/08 08:44:59;;;;;;;4.43;2.00;;;13.50;77.40;;;;;;5047504;28;20022;-70
2022/11/08 08:47:26;;;;;;;3.20;1.73;;;13.50;76.90;;;;;;5044635;28;20036;-70
2022/11/08 08:49:51;;;;;;;4.53;2.00;;;13.60;76.70;;;;;;5045965;28;20021;-71
2022/11/08 08:52:17;;;;;;;2.53;1.63;;;13.70;76.50;;;;;;5038696;28;20228;-70
2022/11/08 08:54:42;;;;;;;2.60;1.70;;;13.70;76.30;;;;;;5041081;28;20028;-71
2022/11/08 08:57:08;;;;;;;3.15;2.20;;;13.80;75.70;;;;;;5037629;28;20033;-71
2022/11/08 08:59:34;;;;;;;4.40;2.00;;;13.80;75.50;;;;;;5037840;28;20030;-71
2022/11/08 09:01:59;;;;;;;2.17;1.60;;;13.90;74.70;;;;;;5043877;28;20029;-70
2022/11/08 09:04:26;;;;;;;3.90;2.08;;;13.90;74.30;;;;;;5046515;28;20134;-71
2022/11/08 09:06:52;;;;;;;3.35;1.80;;;14.00;74.10;;;;;;5041521;28;20031;-70
2022/11/08 09:09:17;;;;;;;3.80;2.00;;;14.10;73.90;;;;;;5046929;28;20024;-71
2022/11/08 09:11:43;;;;;;;3.97;1.90;;;14.10;73.80;;;;;;5043127;28;20025;-70
2022/11/08 09:14:09;;;;;;;4.50;2.00;;;14.10;73.30;;;;;;5044301;28;20084;-71
2022/11/08 09:16:34;;;;;;;4.90;2.45;;;14.20;73.90;;;;;;5051510;28;20083;-70
2022/11/08 09:19:00;;;;;;;4.35;1.73;;;14.20;73.20;;;;;;5045332;28;20049;-71
2022/11/08 09:21:25;;;;;;;2.92;1.80;;;14.20;73.10;;;;;;5044179;28;20067;-71
2022/11/08 09:23:51;;;;;;;6.13;1.90;;;14.20;72.10;;;;;;5044254;28;20105;-68
2022/11/08 09:26:17;;;;;;;4.72;1.90;;;14.20;71.90;;;;;;5048943;28;20104;-71
2022/11/08 09:28:42;;;;;;;5.15;1.90;;;14.20;72.10;;;;;;5044994;28;20087;-71
2022/11/08 09:31:10;;;;;;;3.92;1.80;;;14.20;72.10;;;;;;5041505;28;20043;-71
2022/11/08 09:33:38;;;;;;;3.88;2.20;;;14.30;72.00;;;;;;5043991;28;20033;-71
2022/11/08 09:36:05;;;;;;;4.20;2.03;;;14.30;71.90;;;;;;5044975;28;20088;-71
2022/11/08 09:38:31;;;;;;;3.53;1.90;;;14.30;71.50;;;;;;5048176;28;20037;-70
2022/11/08 09:41:14;;;;;;;4.07;2.00;;;14.30;71.20;;;;;;5044493;28;20036;-71
2022/11/08 09:43:57;;;;;;;2.42;1.88;;;14.30;71.30;;;;;;5044603;28;20032;-71
2022/11/08 09:46:32;;;;;;;3.08;1.42;;;14.40;71.20;;;;;;5047094;28;20364;-70
2022/11/08 09:49:00;;;;;;;4.50;2.00;;;14.50;71.40;;;;;;5039029;28;20094;-70
2022/11/08 09:51:28;;;;;;;4.88;2.28;;;14.50;70.80;;;;;;5037596;28;20025;-71
2022/11/08 09:53:57;;;;;;;4.10;2.20;;;14.50;70.30;;;;;;5040431;28;20028;-71
2022/11/08 09:56:38;;;;;;;4.30;2.20;;;14.50;70.50;;;;;;5042398;28;20380;-71
2022/11/08 09:59:34;;;;;;;3.08;1.92;;;14.50;70.40;;;;;;5041184;28;20022;-71
2022/11/08 10:01:59;;;;;;;4.65;2.15;;;14.60;70.60;;;;;;5040718;28;20557;-71
2022/11/08 10:04:31;;;;;;;3.78;2.00;;;14.60;70.70;;;;;;5044306;28;20021;-70
2022/11/08 10:07:27;;;;;;;3.67;2.05;;;14.60;70.80;;;;;;5046851;28;20104;-70
2022/11/08 10:10:07;;;;;;;3.72;2.08;;;14.60;69.80;;;;;;5044511;28;20120;-70
2022/11/08 10:13:25;;;;;;;5.25;2.20;;;14.60;70.20;;;;;;5043484;28;20035;-70
2022/11/08 10:15:59;;;;;;;4.57;2.03;;;14.70;70.20;;;;;;5023138;28;20065;-70
2022/11/08 10:18:57;;;;;;;7.68;2.20;;;14.70;69.90;;;;;;5047654;28;20020;-71
2022/11/08 10:21:36;;;;;;;3.22;2.28;;;14.70;70.00;;;;;;5039274;28;20071;-70
2022/11/08 10:24:11;;;;;;;6.45;2.13;;;14.80;70.20;;;;;;5047234;28;20024;-71
2022/11/08 10:26:44;;;;;;;5.88;2.08;;;14.80;70.00;;;;;;5047931;28;20024;-70
2022/11/08 10:29:18;;;;;;;4.78;2.38;;;14.80;69.80;;;;;;5046844;28;20163;-70
2022/11/08 10:31:51;;;;;;;5.40;2.42;;;14.80;69.60;;;;;;5043199;28;20036;-70
2022/11/08 10:34:22;;;;;;;5.07;2.30;;;14.80;69.20;;;;;;5048008;28;20029;-71
2022/11/08 10:36:52;;;;;;;4.68;2.35;;;14.90;69.70;;;;;;5046624;28;20032;-71
2022/11/08 10:39:25;;;;;;;4.25;2.30;;;14.90;69.20;;;;;;5049121;28;20064;-70
2022/11/08 10:42:12;;;;;;;3.65;1.85;;;14.90;69.30;;;;;;5045418;28;20024;-70
2022/11/08 10:44:39;;;;;;;3.88;1.90;;;15.00;69.90;;;;;;5048228;28;20028;-71
2022/11/08 10:47:25;;;;;;;5.13;2.00;;;15.10;69.90;;;;;;5043810;28;20527;-70
2022/11/08 10:49:53;;;;;;;2.28;1.90;;;15.10;69.50;;;;;;5042363;28;20032;-70
2022/11/08 10:52:37;;;;;;;3.53;1.98;;;15.20;69.30;;;;;;5038656;28;20067;-70
2022/11/08 10:55:07;;;;;;;3.88;2.00;;;15.20;68.90;;;;;;5045129;28;20032;-71
2022/11/08 10:57:41;;;;;;;3.92;2.13;;;15.20;68.90;;;;;;5041270;28;20124;-70
2022/11/08 11:00:18;;;;;;;3.35;2.00;;;15.20;69.00;;;;;;5040573;28;20116;-71
2022/11/08 11:02:45;;;;;;;4.75;2.10;;;15.20;69.10;;;;;;5044780;28;20029;-71
2022/11/08 11:05:17;;;;;;;3.22;2.00;;;15.20;69.10;;;;;;5047375;28;20419;-70
2022/11/08 11:07:58;;;;;;;3.22;1.80;;;15.20;68.90;;;;;;5041131;28;20107;-70
2022/11/08 11:10:28;;;;;;;4.28;1.92;;;15.20;69.30;;;;;;5044623;28;20472;-70
2022/11/08 11:13:01;;;;;;;6.13;2.50;;;15.20;69.30;;;;;;5039759;28;20017;-70
2022/11/08 11:15:47;;;;;;;4.85;2.33;;;15.20;68.90;;;;;;5045084;28;20029;-70
2022/11/08 11:18:34;;;;;;;4.78;2.20;;;15.20;68.40;;;;;;5043185;28;20090;-70
2022/11/08 11:21:03;;;;;;;4.22;2.20;;;15.20;68.60;;;;;;5045316;28;20029;-70
2022/11/08 11:23:53;;;;;;;8.40;2.60;;;15.20;68.90;;;;;;5039198;28;20736;-70
2022/11/08 11:26:26;;;;;;;3.40;2.00;;;15.20;69.20;;;;;;5042381;28;20513;-69
2022/11/08 11:29:00;;;;;;;5.22;2.03;;;15.20;69.50;;;;;;5044155;28;20082;-70
2022/11/08 11:31:26;;;;;;;4.05;2.10;;;15.30;69.40;;;;;;5045627;28;20096;-70
2022/11/08 11:33:51;;;;;;;4.60;1.88;;;15.30;69.10;;;;;;5047492;28;20112;-70
2022/11/08 11:36:22;;;;;;;4.93;2.28;;;15.40;69.10;;;;;;5047342;28;20025;-69
2022/11/08 11:38:51;;;;;;;4.93;2.58;;;15.40;69.00;;;;;;5043758;28;20670;-69
2022/11/08 11:41:36;;;;;;;3.75;2.05;;;15.40;68.60;;;;;;5043709;28;20549;-67
2022/11/08 11:44:20;;;;;;;2.03;1.63;;;15.40;68.60;;;;;;5045274;28;20017;-67
2022/11/08 11:47:04;;;;;;;3.30;2.20;;;15.50;68.80;;;;;;5044036;28;20024;-68
2022/11/08 11:49:36;;;;;;;3.97;2.25;;;15.50;68.60;;;;;;5042638;28;20033;-68
2022/11/08 11:52:12;;;;;;;3.28;2.00;;;15.50;68.30;;;;;;5044786;28;20490;-68
2022/11/08 11:54:38;;;;;;;4.72;2.00;;;15.50;68.20;;;;;;5043275;28;20137;-68
2022/11/08 11:57:09;;;;;;;3.08;1.90;;;15.50;67.90;;;;;;5041095;28;20117;-67
2022/11/08 11:59:56;;;;;;;3.45;2.15;;;15.60;68.10;;;;;;5034808;28;20031;-68
2022/11/08 12:02:37;;;;;;;2.70;1.95;;;15.60;67.70;;;;;;5041333;28;20091;-68
2022/11/08 12:05:27;;;;;;;6.68;2.00;;;15.60;67.70;;;;;;5044464;28;20047;-68
2022/11/08 12:08:24;;;;;;;5.72;2.22;;;15.70;67.20;;;;;;5042504;28;20022;-67
2022/11/08 12:11:22;;;;;;;4.53;2.03;;;15.80;67.00;;;;;;5044478;28;20151;-68
2022/11/08 12:13:54;;;;;;;5.03;1.60;;;15.90;67.10;;;;;;5045754;28;20031;-68
2022/11/08 12:16:27;;;;;;;5.22;1.88;;;16.00;67.40;;;;;;5045952;28;20064;-68
2022/11/08 12:19:22;;;;;;;4.82;1.90;;;16.10;67.20;;;;;;5037544;28;20021;-68
2022/11/08 12:22:13;;;;;;;3.92;1.60;;;16.10;66.60;;;;;;5042971;28;20021;-68
2022/11/08 12:24:57;;;;;;;8.25;2.00;;;16.20;66.80;;;;;;5043824;28;20134;-68
2022/11/08 12:27:51;;;;;;;6.72;2.15;;;16.20;66.30;;;;;;5044778;28;20021;-68
2022/11/08 12:30:20;;;;;;;3.30;1.90;;;16.30;65.80;;;;;;5036208;28;20094;-68
2022/11/08 12:33:18;;;;;;;3.13;1.80;;;16.30;65.90;;;;;;5047260;28;20108;-68
2022/11/08 12:36:10;;;;;;;3.70;2.05;;;16.60;65.90;;;;;;5036464;28;20421;-68
2022/11/08 12:38:35;;;;;;;;;;;16.80;64.80;;;;;;5039587;28;20063;-68
2022/11/08 12:41:27;;;;;;;3.78;2.10;;;16.70;64.60;;;;;;5038092;28;19963;-68
2022/11/08 12:44:23;;;;;;;4.22;2.20;;;16.60;65.10;;;;;;5044187;28;20067;-68
2022/11/08 12:47:00;;;;;;;3.63;1.90;;;16.50;65.50;;;;;;5045050;28;20104;-68
2022/11/08 12:49:58;;;;;;;8.55;2.15;;;16.50;65.40;;;;;;5041343;28;20027;-68
2022/11/08 12:52:42;;;;;;;5.00;2.10;;;16.40;65.10;;;;;;5044311;28;20021;-68
2022/11/08 12:55:21;;;;;;;5.13;1.88;;;16.30;65.70;;;;;;5039057;28;20024;-69
2022/11/08 12:57:47;;;;;;;3.22;1.90;;;16.30;66.20;;;;;;5045135;28;20098;-68
2022/11/08 13:00:17;;;;;;;4.88;1.95;;;16.20;65.60;;;;;;5043345;28;20028;-68
2022/11/08 13:02:54;;;;;;;5.38;2.00;;;16.20;65.50;;;;;;5037618;28;20492;-68
2022/11/08 13:05:32;;;;;;;6.90;2.20;;;16.20;66.00;;;;;;5040975;28;20021;-69
2022/11/08 13:08:24;;;;;;;3.22;1.73;;;16.20;65.70;;;;;;5037260;28;20083;-68
2022/11/08 13:11:01;;;;;;;5.10;2.37;;;16.20;66.10;;;;;;5036306;28;20124;-68
2022/11/08 13:13:52;;;;;;;3.40;1.70;;;16.10;66.00;;;;;;5038951;28;20035;-68
2022/11/08 13:16:27;;;;;;;3.88;1.75;;;16.10;66.20;;;;;;5042609;28;20029;-69
2022/11/08 13:18:55;;;;;;;2.67;1.85;;;16.10;66.40;;;;;;5043368;28;21108;-68
2022/11/08 13:21:26;;;;;;;3.42;2.00;;;16.10;66.30;;;;;;5045876;28;20036;-68